sensor_id;sensor_type;location;lat;lon;timestamp;pressure;altitude;pressure_sealevel;temperature;humidity
48968;BME280;46511;53.148;8.204;2022-08-18T00:00:40;101122.38;;;20.95;100.00
48968;BME280;46511;53.148;8.204;2022-08-18T00:03:11;101116.94;;;21.05;100.00
48968;BME280;46511;53.148;8.204;2022-08-18T00:05:43;101125.47;;;21.00;100.00
48968;BME280;46511;53.148;8.204;2022-08-18T00:08:09;101123.75;;;21.09;100.00
48968;BME280;46511;53.148;8.204;2022-08-18T00:10:40;101121.03;;;21.09;100.00
48968;BME280;46511;53.148;8.204;2022-08-18T00:13:12;101113.97;;;20.98;100.00
48968;BME280;46511;53.148;8.204;2022-08-18T00:15:43;101102.84;;;21.11;100.00
48968;BME280;46511;53.148;8.204;2022-08-18T00:18:15;101112.88;;;20.81;100.00
48968;BME280;46511;53.148;8.204;2022-08-18T00:20:46;101108.06;;;20.75;100.00
48968;BME280;46511;53.148;8.204;2022-08-18T00:23:13;101106.91;;;20.88;100.00
48968;BME280;46511;53.148;8.204;2022-08-18T00:25:44;101101.78;;;20.94;100.00
48968;BME280;46511;53.148;8.204;2022-08-18T00:28:16;101103.50;;;20.86;100.00
48968;BME280;46511;53.148;8.204;2022-08-18T00:30:47;101104.59;;;20.93;100.00
48968;BME280;46511;53.148;8.204;2022-08-18T00:33:18;101109.00;;;20.94;100.00
48968;BME280;46511;53.148;8.204;2022-08-18T00:35:49;101123.34;;;21.04;100.00
48968;BME280;46511;53.148;8.204;2022-08-18T00:38:21;101121.94;;;21.00;100.00
48968;BME280;46511;53.148;8.204;2022-08-18T00:40:53;101119.91;;;21.11;100.00
48968;BME280;46511;53.148;8.204;2022-08-18T00:45:59;101125.25;;;21.21;100.00
48968;BME280;46511;53.148;8.204;2022-08-18T00:48:31;101135.38;;;21.19;100.00
48968;BME280;46511;53.148;8.204;2022-08-18T00:51:05;101127.84;;;21.23;100.00
48968;BME280;46511;53.148;8.204;2022-08-18T00:53:43;101131.97;;;21.17;100.00
48968;BME280;46511;53.148;8.204;2022-08-18T00:56:20;101140.78;;;21.19;100.00
48968;BME280;46511;53.148;8.204;2022-08-18T00:59:04;101136.13;;;21.02;100.00
48968;BME280;46511;53.148;8.204;2022-08-18T01:01:36;101124.75;;;21.08;100.00
48968;BME280;46511;53.148;8.204;2022-08-18T01:07:09;101121.09;;;20.90;100.00
48968;BME280;46511;53.148;8.204;2022-08-18T01:09:42;101117.41;;;20.91;100.00
48968;BME280;46511;53.148;8.204;2022-08-18T01:12:13;101123.94;;;20.98;100.00
48968;BME280;46511;53.148;8.204;2022-08-18T01:14:45;101124.63;;;21.00;100.00
48968;BME280;46511;53.148;8.204;2022-08-18T01:17:16;101123.47;;;21.02;100.00
48968;BME280;46511;53.148;8.204;2022-08-18T01:20:07;101118.78;;;21.14;100.00
48968;BME280;46511;53.148;8.204;2022-08-18T01:25:30;101131.91;;;20.90;100.00
48968;BME280;46511;53.148;8.204;2022-08-18T01:28:21;101125.66;;;20.79;100.00
48968;BME280;46511;53.148;8.204;2022-08-18T01:30:55;101127.06;;;20.93;100.00
48968;BME280;46511;53.148;8.204;2022-08-18T01:33:29;101120.78;;;20.93;100.00
48968;BME280;46511;53.148;8.204;2022-08-18T01:36:10;101134.03;;;20.96;100.00
48968;BME280;46511;53.148;8.204;2022-08-18T01:38:45;101127.75;;;21.05;100.00
48968;BME280;46511;53.148;8.204;2022-08-18T01:41:17;101127.03;;;21.03;100.00
48968;BME280;46511;53.148;8.204;2022-08-18T01:43:49;101126.94;;;20.95;100.00
48968;BME280;46511;53.148;8.204;2022-08-18T01:46:20;101127.03;;;21.03;100.00
48968;BME280;46511;53.148;8.204;2022-08-18T01:48:52;101134.16;;;21.04;100.00
48968;BME280;46511;53.148;8.204;2022-08-18T01:51:23;101128.72;;;21.14;100.00
48968;BME280;46511;53.148;8.204;2022-08-18T01:53:55;101120.19;;;21.08;100.00
48968;BME280;46511;53.148;8.204;2022-08-18T01:56:26;101107.53;;;21.09;100.00
48968;BME280;46511;53.148;8.204;2022-08-18T01:58:58;101103.28;;;21.06;100.00
48968;BME280;46511;53.148;8.204;2022-08-18T02:01:29;101108.84;;;21.05;100.00
48968;BME280;46511;53.148;8.204;2022-08-18T02:04:00;101104.97;;;21.17;100.00
48968;BME280;46511;53.148;8.204;2022-08-18T02:06:32;101099.44;;;21.09;100.00
48968;BME280;46511;53.148;8.204;2022-08-18T02:09:03;101101.00;;;21.11;100.00
48968;BME280;46511;53.148;8.204;2022-08-18T02:11:34;101094.34;;;21.06;100.00
48968;BME280;46511;53.148;8.204;2022-08-18T02:14:06;101088.06;;;21.15;100.00
48968;BME280;46511;53.148;8.204;2022-08-18T02:16:37;101083.81;;;21.03;100.00
48968;BME280;46511;53.148;8.204;2022-08-18T02:19:08;101088.47;;;21.10;100.00
48968;BME280;46511;53.148;8.204;2022-08-18T02:21:39;101079.13;;;21.05;100.00
48968;BME280;46511;53.148;8.204;2022-08-18T02:24:11;101077.06;;;20.79;100.00
48968;BME280;46511;53.148;8.204;2022-08-18T02:26:42;101077.59;;;20.93;100.00
48968;BME280;46511;53.148;8.204;2022-08-18T02:29:13;101081.47;;;20.80;100.00
48968;BME280;46511;53.148;8.204;2022-08-18T02:31:45;101081.09;;;20.66;100.00
48968;BME280;46511;53.148;8.204;2022-08-18T02:34:16;101078.38;;;20.56;100.00
48968;BME280;46511;53.148;8.204;2022-08-18T02:36:47;101081.25;;;20.45;100.00
48968;BME280;46511;53.148;8.204;2022-08-18T02:39:14;101083.22;;;20.23;100.00
48968;BME280;46511;53.148;8.204;2022-08-18T02:41:45;101074.72;;;20.28;100.00
48968;BME280;46511;53.148;8.204;2022-08-18T02:44:16;101079.97;;;20.10;100.00
48968;BME280;46511;53.148;8.204;2022-08-18T02:46:50;101082.50;;;20.21;100.00
48968;BME280;46511;53.148;8.204;2022-08-18T02:49:22;101077.41;;;20.18;100.00
48968;BME280;46511;53.148;8.204;2022-08-18T02:51:53;101080.50;;;20.04;100.00
48968;BME280;46511;53.148;8.204;2022-08-18T02:54:24;101075.56;;;20.09;100.00
48968;BME280;46511;53.148;8.204;2022-08-18T02:56:56;101083.34;;;20.12;100.00
48968;BME280;46511;53.148;8.204;2022-08-18T02:59:27;101079.66;;;20.13;100.00
48968;BME280;46511;53.148;8.204;2022-08-18T03:01:58;101085.91;;;20.04;100.00
48968;BME280;46511;53.148;8.204;2022-08-18T03:04:30;101093.53;;;19.99;100.00
48968;BME280;46511;53.148;8.204;2022-08-18T03:07:02;101092.31;;;20.22;100.00
48968;BME280;46511;53.148;8.204;2022-08-18T03:09:34;101085.75;;;20.35;100.00
48968;BME280;46511;53.148;8.204;2022-08-18T03:12:05;101087.91;;;20.41;100.00
48968;BME280;46511;53.148;8.204;2022-08-18T03:14:37;101089.34;;;20.45;100.00
48968;BME280;46511;53.148;8.204;2022-08-18T03:17:10;101097.00;;;20.40;100.00
48968;BME280;46511;53.148;8.204;2022-08-18T03:19:41;101105.47;;;20.06;100.00
48968;BME280;46511;53.148;8.204;2022-08-18T03:22:14;101104.94;;;20.12;100.00
48968;BME280;46511;53.148;8.204;2022-08-18T03:24:46;101105.47;;;20.06;100.00
48968;BME280;46511;53.148;8.204;2022-08-18T03:27:18;101107.34;;;20.15;100.00
48968;BME280;46511;53.148;8.204;2022-08-18T03:29:49;101114.28;;;20.27;100.00
48968;BME280;46511;53.148;8.204;2022-08-18T03:32:21;101114.28;;;20.27;100.00
48968;BME280;46511;53.148;8.204;2022-08-18T03:34:52;101121.41;;;20.29;100.00
48968;BME280;46511;53.148;8.204;2022-08-18T03:37:24;101126.38;;;20.23;100.00
48968;BME280;46511;53.148;8.204;2022-08-18T03:39:55;101130.06;;;20.32;100.00
48968;BME280;46511;53.148;8.204;2022-08-18T03:42:26;101128.22;;;20.13;100.00
48968;BME280;46511;53.148;8.204;2022-08-18T03:44:57;101124.22;;;20.37;100.00
48968;BME280;46511;53.148;8.204;2022-08-18T03:47:29;101135.06;;;20.56;100.00
48968;BME280;46511;53.148;8.204;2022-08-18T03:50:00;101131.94;;;20.51;100.00
48968;BME280;46511;53.148;8.204;2022-08-18T03:52:31;101137.72;;;20.27;100.00
48968;BME280;46511;53.148;8.204;2022-08-18T03:55:03;101141.16;;;20.39;100.00
48968;BME280;46511;53.148;8.204;2022-08-18T03:57:35;101143.56;;;20.22;100.00
48968;BME280;46511;53.148;8.204;2022-08-18T04:00:07;101144.41;;;20.33;100.00
48968;BME280;46511;53.148;8.204;2022-08-18T04:02:39;101139.59;;;20.56;100.00
48968;BME280;46511;53.148;8.204;2022-08-18T04:05:11;101137.59;;;20.29;100.00
48968;BME280;46511;53.148;8.204;2022-08-18T04:07:44;101137.06;;;20.54;100.00
48968;BME280;46511;53.148;8.204;2022-08-18T04:10:15;101144.03;;;20.57;100.00
48968;BME280;46511;53.148;8.204;2022-08-18T04:12:46;101150.41;;;20.46;100.00
48968;BME280;46511;53.148;8.204;2022-08-18T04:15:17;101145.28;;;20.62;100.00
48968;BME280;46511;53.148;8.204;2022-08-18T04:17:49;101141.88;;;20.70;100.00
48968;BME280;46511;53.148;8.204;2022-08-18T04:20:20;101146.44;;;20.50;100.00
48968;BME280;46511;53.148;8.204;2022-08-18T04:22:51;101140.88;;;20.42;100.00
48968;BME280;46511;53.148;8.204;2022-08-18T04:25:23;101144.41;;;20.33;100.00
48968;BME280;46511;53.148;8.204;2022-08-18T04:27:54;101133.06;;;20.39;100.00
48968;BME280;46511;53.148;8.204;2022-08-18T04:30:27;101135.03;;;20.37;100.00
48968;BME280;46511;53.148;8.204;2022-08-18T04:32:59;101134.81;;;20.49;100.00
48968;BME280;46511;53.148;8.204;2022-08-18T04:35:31;101141.34;;;20.66;100.00
48968;BME280;46511;53.148;8.204;2022-08-18T04:38:02;101150.69;;;20.43;100.00
48968;BME280;46511;53.148;8.204;2022-08-18T04:40:33;101152.94;;;20.38;100.00
48968;BME280;46511;53.148;8.204;2022-08-18T04:43:04;101158.63;;;20.64;100.00
48968;BME280;46511;53.148;8.204;2022-08-18T04:45:36;101152.53;;;20.62;100.00
48968;BME280;46511;53.148;8.204;2022-08-18T04:48:10;101149.44;;;20.47;100.00
48968;BME280;46511;53.148;8.204;2022-08-18T04:50:41;101142.75;;;20.51;100.00
48968;BME280;46511;53.148;8.204;2022-08-18T04:53:12;101148.97;;;20.42;100.00
48968;BME280;46511;53.148;8.204;2022-08-18T04:56:02;101158.19;;;20.30;100.00
48968;BME280;46511;53.148;8.204;2022-08-18T04:58:34;101161.44;;;20.33;100.00
48968;BME280;46511;53.148;8.204;2022-08-18T05:01:05;101160.59;;;20.33;100.00
48968;BME280;46511;53.148;8.204;2022-08-18T05:03:36;101162.84;;;20.27;100.00
48968;BME280;46511;53.148;8.204;2022-08-18T05:06:08;101165.16;;;20.42;100.00
48968;BME280;46511;53.148;8.204;2022-08-18T05:08:39;101163.75;;;20.38;100.00
48968;BME280;46511;53.148;8.204;2022-08-18T05:11:11;101153.69;;;20.49;100.00
48968;BME280;46511;53.148;8.204;2022-08-18T05:13:42;101164.59;;;20.38;100.00
48968;BME280;46511;53.148;8.204;2022-08-18T05:16:14;101162.94;;;20.66;100.00
48968;BME280;46511;53.148;8.204;2022-08-18T05:18:45;101161.34;;;20.73;100.00
48968;BME280;46511;53.148;8.204;2022-08-18T05:21:16;101152.97;;;20.67;100.00
48968;BME280;46511;53.148;8.204;2022-08-18T05:23:48;101160.91;;;20.78;100.00
48968;BME280;46511;53.148;8.204;2022-08-18T05:26:19;101166.88;;;20.62;100.00
48968;BME280;46511;53.148;8.204;2022-08-18T05:28:51;101167.72;;;20.72;100.00
48968;BME280;46511;53.148;8.204;2022-08-18T05:31:23;101157.91;;;20.91;100.00
48968;BME280;46511;53.148;8.204;2022-08-18T05:33:55;101159.28;;;21.14;100.00
48968;BME280;46511;53.148;8.204;2022-08-18T05:44:17;101156.88;;;21.58;100.00
48968;BME280;46511;53.148;8.204;2022-08-18T05:49:20;101175.72;;;21.40;100.00
48968;BME280;46511;53.148;8.204;2022-08-18T05:51:53;101171.31;;;22.04;100.00
48968;BME280;46511;53.148;8.204;2022-08-18T05:54:26;101170.69;;;22.19;100.00
48968;BME280;46511;53.148;8.204;2022-08-18T05:57:19;101169.13;;;21.89;100.00
48968;BME280;46511;53.148;8.204;2022-08-18T05:59:52;101158.47;;;22.06;100.00
48968;BME280;46511;53.148;8.204;2022-08-18T06:05:35;101150.78;;;23.26;96.98
48968;BME280;46511;53.148;8.204;2022-08-18T06:08:00;101154.13;;;22.94;99.63
48968;BME280;46511;53.148;8.204;2022-08-18T06:10:34;101158.78;;;23.09;98.24
48968;BME280;46511;53.148;8.204;2022-08-18T06:13:07;101166.34;;;23.24;97.02
48968;BME280;46511;53.148;8.204;2022-08-18T06:15:41;101158.66;;;23.45;95.03
48968;BME280;46511;53.148;8.204;2022-08-18T06:23:34;101171.38;;;22.75;100.00
48968;BME280;46511;53.148;8.204;2022-08-18T06:28:47;101178.25;;;23.05;99.42
48968;BME280;46511;53.148;8.204;2022-08-18T06:31:44;101182.22;;;22.75;100.00
48968;BME280;46511;53.148;8.204;2022-08-18T06:36:51;101179.97;;;23.32;97.50
48968;BME280;46511;53.148;8.204;2022-08-18T06:39:28;101180.28;;;23.89;93.19
48968;BME280;46511;53.148;8.204;2022-08-18T06:42:01;101180.13;;;24.07;91.88
48968;BME280;46511;53.148;8.204;2022-08-18T06:44:40;101178.97;;;24.09;90.46
48968;BME280;46511;53.148;8.204;2022-08-18T06:50:07;101185.78;;;24.21;91.61
48968;BME280;46511;53.148;8.204;2022-08-18T06:55:58;101182.63;;;24.42;89.39
48968;BME280;46511;53.148;8.204;2022-08-18T06:58:27;101196.66;;;24.21;90.64
48968;BME280;46511;53.148;8.204;2022-08-18T07:01:00;101188.75;;;23.94;92.34
48968;BME280;46511;53.148;8.204;2022-08-18T07:06:07;101192.88;;;24.14;91.79
48968;BME280;46511;53.148;8.204;2022-08-18T07:08:42;101199.75;;;23.84;93.74
48968;BME280;46511;53.148;8.204;2022-08-18T07:13:55;101197.03;;;23.58;95.92
48968;BME280;46511;53.148;8.204;2022-08-18T07:16:30;101200.63;;;23.93;92.63
48968;BME280;46511;53.148;8.204;2022-08-18T07:19:19;101203.75;;;23.46;97.03
48968;BME280;46511;53.148;8.204;2022-08-18T07:22:02;101208.81;;;23.41;97.77
48968;BME280;46511;53.148;8.204;2022-08-18T07:24:39;101215.94;;;22.98;100.00
48968;BME280;46511;53.148;8.204;2022-08-18T07:27:13;101220.09;;;23.11;100.00
48968;BME280;46511;53.148;8.204;2022-08-18T07:29:58;101221.69;;;22.95;100.00
48968;BME280;46511;53.148;8.204;2022-08-18T07:35:17;101230.72;;;23.22;99.59
48968;BME280;46511;53.148;8.204;2022-08-18T07:37:53;101223.31;;;23.58;97.03
48968;BME280;46511;53.148;8.204;2022-08-18T07:40:37;101221.59;;;23.83;97.37
48968;BME280;46511;53.148;8.204;2022-08-18T07:43:16;101226.94;;;24.51;93.82
48968;BME280;46511;53.148;8.204;2022-08-18T07:45:50;101226.59;;;24.54;90.18
48968;BME280;46511;53.148;8.204;2022-08-18T07:48:32;101238.09;;;24.32;90.71
48968;BME280;46511;53.148;8.204;2022-08-18T07:53:41;101245.13;;;24.50;89.69
48968;BME280;46511;53.148;8.204;2022-08-18T07:59:08;101249.94;;;25.30;85.17
48968;BME280;46511;53.148;8.204;2022-08-18T08:01:47;101251.09;;;25.60;84.17
48968;BME280;46511;53.148;8.204;2022-08-18T08:04:26;101248.94;;;26.03;80.28
48968;BME280;46511;53.148;8.204;2022-08-18T08:07:04;101249.50;;;25.98;78.96
48968;BME280;46511;53.148;8.204;2022-08-18T08:17:39;101239.59;;;26.36;78.62
48968;BME280;46511;53.148;8.204;2022-08-18T08:20:18;101241.66;;;26.34;78.01
48968;BME280;46511;53.148;8.204;2022-08-18T08:25:39;101241.56;;;27.04;72.22
48968;BME280;46511;53.148;8.204;2022-08-18T08:31:03;101242.16;;;27.15;70.91
48968;BME280;46511;53.148;8.204;2022-08-18T08:33:44;101240.06;;;26.48;74.25
48968;BME280;46511;53.148;8.204;2022-08-18T08:36:19;101244.97;;;26.98;71.97
48968;BME280;46511;53.148;8.204;2022-08-18T08:38:58;101242.13;;;29.82;61.34
48968;BME280;46511;53.148;8.204;2022-08-18T08:41:49;101236.19;;;31.74;54.69
48968;BME280;46511;53.148;8.204;2022-08-18T08:44:29;101239.78;;;31.74;51.82
48968;BME280;46511;53.148;8.204;2022-08-18T08:47:14;101236.47;;;31.39;52.76
48968;BME280;46511;53.148;8.204;2022-08-18T08:49:50;101239.09;;;32.50;50.79
48968;BME280;46511;53.148;8.204;2022-08-18T08:52:26;101224.66;;;33.86;47.89
48968;BME280;46511;53.148;8.204;2022-08-18T08:57:39;101236.88;;;31.10;53.60
48968;BME280;46511;53.148;8.204;2022-08-18T09:00:12;101233.44;;;29.72;57.05
48968;BME280;46511;53.148;8.204;2022-08-18T09:05:27;101243.03;;;27.97;64.46
48968;BME280;46511;53.148;8.204;2022-08-18T09:08:09;101242.78;;;28.13;64.12
48968;BME280;46511;53.148;8.204;2022-08-18T09:13:33;101239.31;;;27.60;65.93
48968;BME280;46511;53.148;8.204;2022-08-18T09:16:14;101245.28;;;27.26;67.19
48968;BME280;46511;53.148;8.204;2022-08-18T09:24:39;101250.75;;;29.23;57.88
48968;BME280;46511;53.148;8.204;2022-08-18T09:27:22;101234.69;;;32.81;47.96
48968;BME280;46511;53.148;8.204;2022-08-18T09:29:57;101229.84;;;34.91;40.25
48968;BME280;46511;53.148;8.204;2022-08-18T09:32:35;101231.78;;;36.93;36.17
48968;BME280;46511;53.148;8.204;2022-08-18T09:35:12;101234.84;;;34.04;41.05
48968;BME280;46511;53.148;8.204;2022-08-18T09:40:58;101244.03;;;30.17;52.78
48968;BME280;46511;53.148;8.204;2022-08-18T09:43:55;101249.09;;;28.43;61.63
48968;BME280;46511;53.148;8.204;2022-08-18T09:51:56;101251.00;;;27.17;68.33
48968;BME280;46511;53.148;8.204;2022-08-18T09:54:28;101245.28;;;27.79;66.06
48968;BME280;46511;53.148;8.204;2022-08-18T10:07:46;101241.69;;;31.74;48.99
48968;BME280;46511;53.148;8.204;2022-08-18T10:10:27;101237.44;;;34.77;41.66
48968;BME280;46511;53.148;8.204;2022-08-18T10:15:41;101239.44;;;29.89;52.63
48968;BME280;46511;53.148;8.204;2022-08-18T10:23:40;101259.19;;;28.13;58.13
48968;BME280;46511;53.148;8.204;2022-08-18T10:26:56;101261.94;;;28.64;57.04
48968;BME280;46511;53.148;8.204;2022-08-18T10:34:39;101263.91;;;28.34;57.75
48968;BME280;46511;53.148;8.204;2022-08-18T10:37:21;101269.06;;;28.44;59.50
48968;BME280;46511;53.148;8.204;2022-08-18T10:39:54;101278.78;;;28.32;59.79
48968;BME280;46511;53.148;8.204;2022-08-18T10:42:32;101261.84;;;28.07;59.89
48968;BME280;46511;53.148;8.204;2022-08-18T10:47:41;101266.38;;;28.87;56.93
48968;BME280;46511;53.148;8.204;2022-08-18T10:50:19;101273.16;;;29.34;55.92
48968;BME280;46511;53.148;8.204;2022-08-18T10:58:08;101272.66;;;29.02;56.12
48968;BME280;46511;53.148;8.204;2022-08-18T11:00:45;101270.84;;;29.58;54.09
48968;BME280;46511;53.148;8.204;2022-08-18T11:03:29;101260.75;;;30.41;51.82
48968;BME280;46511;53.148;8.204;2022-08-18T11:06:06;101267.50;;;30.32;51.34
48968;BME280;46511;53.148;8.204;2022-08-18T11:08:41;101263.41;;;29.80;53.51
48968;BME280;46511;53.148;8.204;2022-08-18T11:11:13;101269.06;;;30.07;52.44
48968;BME280;46511;53.148;8.204;2022-08-18T11:16:27;101285.53;;;29.51;55.26
48968;BME280;46511;53.148;8.204;2022-08-18T11:19:05;101281.31;;;29.48;54.63
48968;BME280;46511;53.148;8.204;2022-08-18T11:24:24;101290.38;;;29.49;54.38
48968;BME280;46511;53.148;8.204;2022-08-18T11:38:10;101284.34;;;29.60;53.00
48968;BME280;46511;53.148;8.204;2022-08-18T11:40:44;101286.19;;;30.22;53.73
48968;BME280;46511;53.148;8.204;2022-08-18T11:43:27;101289.81;;;29.60;54.59
48968;BME280;46511;53.148;8.204;2022-08-18T11:46:01;101288.00;;;29.24;55.79
48968;BME280;46511;53.148;8.204;2022-08-18T11:48:43;101288.84;;;30.43;51.80
48968;BME280;46511;53.148;8.204;2022-08-18T11:58:51;101286.28;;;29.45;55.22
48968;BME280;46511;53.148;8.204;2022-08-18T12:03:58;101273.50;;;33.36;45.77
48968;BME280;46511;53.148;8.204;2022-08-18T12:06:38;101272.09;;;33.20;44.08
48968;BME280;46511;53.148;8.204;2022-08-18T12:09:14;101279.38;;;33.64;42.69
48968;BME280;46511;53.148;8.204;2022-08-18T12:14:25;101272.97;;;34.74;40.74
48968;BME280;46511;53.148;8.204;2022-08-18T12:16:57;101275.50;;;36.63;35.47
48968;BME280;46511;53.148;8.204;2022-08-18T12:19:28;101267.59;;;36.14;35.64
48968;BME280;46511;53.148;8.204;2022-08-18T12:22:11;101273.34;;;36.24;36.84
48968;BME280;46511;53.148;8.204;2022-08-18T12:24:43;101268.72;;;36.99;33.90
48968;BME280;46511;53.148;8.204;2022-08-18T12:27:17;101274.56;;;34.51;38.06
48968;BME280;46511;53.148;8.204;2022-08-18T12:29:49;101275.22;;;33.73;39.69
48968;BME280;46511;53.148;8.204;2022-08-18T12:32:22;101265.03;;;32.23;43.33
48968;BME280;46511;53.148;8.204;2022-08-18T12:34:53;101264.53;;;31.61;46.56
48968;BME280;46511;53.148;8.204;2022-08-18T12:37:25;101268.03;;;30.69;48.69
48968;BME280;46511;53.148;8.204;2022-08-18T12:39:57;101247.00;;;30.89;49.30
48968;BME280;46511;53.148;8.204;2022-08-18T12:42:28;101244.25;;;30.83;50.33
48968;BME280;46511;53.148;8.204;2022-08-18T12:45:00;101242.66;;;34.07;41.91
48968;BME280;46511;53.148;8.204;2022-08-18T12:47:31;101245.63;;;33.19;41.98
48968;BME280;46511;53.148;8.204;2022-08-18T12:50:02;101255.19;;;32.53;43.74
48968;BME280;46511;53.148;8.204;2022-08-18T12:52:34;101255.84;;;31.64;46.80
48968;BME280;46511;53.148;8.204;2022-08-18T12:55:05;101264.25;;;30.70;48.69
48968;BME280;46511;53.148;8.204;2022-08-18T12:57:38;101264.97;;;30.37;50.06
48968;BME280;46511;53.148;8.204;2022-08-18T13:00:10;101271.09;;;30.39;50.33
48968;BME280;46511;53.148;8.204;2022-08-18T13:02:41;101275.22;;;30.22;50.28
48968;BME280;46511;53.148;8.204;2022-08-18T13:05:13;101271.13;;;31.20;47.12
48968;BME280;46511;53.148;8.204;2022-08-18T13:07:44;101275.88;;;30.72;48.36
48968;BME280;46511;53.148;8.204;2022-08-18T13:10:16;101275.31;;;30.01;50.95
48968;BME280;46511;53.148;8.204;2022-08-18T13:12:47;101285.63;;;29.64;52.79
48968;BME280;46511;53.148;8.204;2022-08-18T13:15:18;101293.63;;;29.38;53.02
48968;BME280;46511;53.148;8.204;2022-08-18T13:17:50;101282.91;;;29.43;52.86
48968;BME280;46511;53.148;8.204;2022-08-18T13:20:21;101282.16;;;29.06;53.09
48968;BME280;46511;53.148;8.204;2022-08-18T13:22:47;101276.97;;;29.11;53.60
48968;BME280;46511;53.148;8.204;2022-08-18T13:25:18;101265.72;;;28.63;54.20
48968;BME280;46511;53.148;8.204;2022-08-18T13:27:50;101263.78;;;28.28;54.69
48968;BME280;46511;53.148;8.204;2022-08-18T13:30:22;101260.88;;;28.44;54.57
48968;BME280;46511;53.148;8.204;2022-08-18T13:32:54;101264.91;;;28.48;53.98
48968;BME280;46511;53.148;8.204;2022-08-18T13:35:25;101261.63;;;28.74;54.46
48968;BME280;46511;53.148;8.204;2022-08-18T13:37:57;101259.09;;;29.15;52.91
48968;BME280;46511;53.148;8.204;2022-08-18T13:40:28;101259.63;;;28.47;55.10
48968;BME280;46511;53.148;8.204;2022-08-18T13:42:59;101262.59;;;28.88;54.51
48968;BME280;46511;53.148;8.204;2022-08-18T13:45:31;101270.91;;;28.80;54.70
48968;BME280;46511;53.148;8.204;2022-08-18T13:48:03;101272.38;;;28.76;54.64
48968;BME280;46511;53.148;8.204;2022-08-18T13:50:35;101283.72;;;29.15;53.18
48968;BME280;46511;53.148;8.204;2022-08-18T13:53:12;101282.41;;;28.90;53.67
48968;BME280;46511;53.148;8.204;2022-08-18T13:55:44;101274.16;;;29.54;51.72
48968;BME280;46511;53.148;8.204;2022-08-18T13:58:16;101268.56;;;31.19;46.92
48968;BME280;46511;53.148;8.204;2022-08-18T14:00:48;101258.53;;;32.55;42.81
48968;BME280;46511;53.148;8.204;2022-08-18T14:03:22;101272.38;;;32.80;42.70
48968;BME280;46511;53.148;8.204;2022-08-18T14:05:49;101268.09;;;32.91;42.39
48968;BME280;46511;53.148;8.204;2022-08-18T14:08:20;101273.69;;;33.59;40.55
48968;BME280;46511;53.148;8.204;2022-08-18T14:10:55;101265.47;;;34.14;38.82
48968;BME280;46511;53.148;8.204;2022-08-18T14:13:28;101283.94;;;33.70;39.51
48968;BME280;46511;53.148;8.204;2022-08-18T14:15:59;101288.56;;;33.76;38.99
48968;BME280;46511;53.148;8.204;2022-08-18T14:18:31;101285.22;;;35.08;37.16
48968;BME280;46511;53.148;8.204;2022-08-18T14:21:02;101289.66;;;35.09;38.24
48968;BME280;46511;53.148;8.204;2022-08-18T14:23:52;101296.41;;;34.34;37.88
48968;BME280;46511;53.148;8.204;2022-08-18T14:26:52;101297.66;;;30.93;45.88
48968;BME280;46511;53.148;8.204;2022-08-18T14:29:23;101302.09;;;29.71;50.05
48968;BME280;46511;53.148;8.204;2022-08-18T14:31:50;101305.03;;;29.20;52.35
48968;BME280;46511;53.148;8.204;2022-08-18T14:34:23;101305.78;;;28.56;53.49
48968;BME280;46511;53.148;8.204;2022-08-18T14:36:54;101297.50;;;28.86;53.78
48968;BME280;46511;53.148;8.204;2022-08-18T14:39:25;101294.03;;;28.92;54.10
48968;BME280;46511;53.148;8.204;2022-08-18T14:41:57;101285.94;;;30.10;49.47
48968;BME280;46511;53.148;8.204;2022-08-18T14:44:29;101279.28;;;30.81;47.24
48968;BME280;46511;53.148;8.204;2022-08-18T14:47:00;101286.25;;;30.90;46.31
48968;BME280;46511;53.148;8.204;2022-08-18T14:49:27;101289.66;;;31.12;46.03
48968;BME280;46511;53.148;8.204;2022-08-18T14:52:01;101283.81;;;30.54;47.89
48968;BME280;46511;53.148;8.204;2022-08-18T14:54:32;101293.00;;;29.42;50.70
48968;BME280;46511;53.148;8.204;2022-08-18T14:57:04;101296.22;;;29.24;52.48
48968;BME280;46511;53.148;8.204;2022-08-18T14:59:35;101290.38;;;29.83;50.43
48968;BME280;46511;53.148;8.204;2022-08-18T15:02:08;101294.59;;;29.79;50.15
48968;BME280;46511;53.148;8.204;2022-08-18T15:04:41;101291.97;;;31.15;46.89
48968;BME280;46511;53.148;8.204;2022-08-18T15:07:13;101296.19;;;30.91;45.94
48968;BME280;46511;53.148;8.204;2022-08-18T15:09:44;101292.66;;;31.50;45.76
48968;BME280;46511;53.148;8.204;2022-08-18T15:12:15;101289.13;;;30.68;47.18
48968;BME280;46511;53.148;8.204;2022-08-18T15:14:47;101297.81;;;29.62;50.08
48968;BME280;46511;53.148;8.204;2022-08-18T15:17:18;101295.06;;;28.91;52.08
48968;BME280;46511;53.148;8.204;2022-08-18T15:19:49;101294.22;;;27.95;55.31
48968;BME280;46511;53.148;8.204;2022-08-18T15:22:21;101292.44;;;28.47;54.01
48968;BME280;46511;53.148;8.204;2022-08-18T15:25:10;101287.63;;;29.49;49.80
48968;BME280;46511;53.148;8.204;2022-08-18T15:28:00;101293.84;;;29.43;49.23
48968;BME280;46511;53.148;8.204;2022-08-18T15:30:32;101298.91;;;29.46;50.20
48968;BME280;46511;53.148;8.204;2022-08-18T15:33:03;101301.59;;;29.11;50.61
48968;BME280;46511;53.148;8.204;2022-08-18T15:35:34;101297.19;;;28.59;52.11
48968;BME280;46511;53.148;8.204;2022-08-18T15:38:06;101300.94;;;28.73;52.73
48968;BME280;46511;53.148;8.204;2022-08-18T15:40:38;101298.13;;;28.66;53.76
48968;BME280;46511;53.148;8.204;2022-08-18T15:43:17;101291.47;;;28.54;52.76
48968;BME280;46511;53.148;8.204;2022-08-18T15:45:49;101294.03;;;28.41;53.49
48968;BME280;46511;53.148;8.204;2022-08-18T15:48:21;101291.78;;;28.00;56.00